TimePST,TemperatureF,Dew PointF,Humidity,Sea Level PressureIn,VisibilityMPH,Wind Direction,Wind SpeedMPH,Gust SpeedMPH,PrecipitationIn,Events,Conditions,WindDirDegrees,DateUTC
12:53 AM,46.0,37.9,73,30.28,10.0,Calm,Calm,-,N/A,,Clear,0,2013-03-02 08:53:00
1:53 AM,42.1,37.0,82,30.27,10.0,NE,3.5,-,N/A,,Clear,40,2013-03-02 09:53:00
2:53 AM,43.0,37.0,80,30.26,10.0,NE,3.5,-,N/A,,Clear,50,2013-03-02 10:53:00
3:53 AM,42.1,36.0,79,30.25,10.0,NE,4.6,-,N/A,,Clear,40,2013-03-02 11:53:00
4:53 AM,41.0,35.1,79,30.24,10.0,NE,5.8,-,N/A,,Clear,50,2013-03-02 12:53:00
5:53 AM,39.9,35.1,83,30.22,10.0,NE,3.5,-,N/A,,Clear,50,2013-03-02 13:53:00
6:53 AM,39.9,35.1,83,30.21,10.0,ENE,5.8,-,N/A,,Clear,60,2013-03-02 14:53:00
7:53 AM,43.0,36.0,76,30.20,10.0,ENE,6.9,-,N/A,,Clear,70,2013-03-02 15:53:00
8:53 AM,45.0,37.0,74,30.19,10.0,NE,3.5,-,N/A,,Scattered Clouds,40,2013-03-02 16:53:00
9:53 AM,48.9,39.0,69,30.16,10.0,Calm,Calm,-,N/A,,Clear,0,2013-03-02 17:53:00
10:53 AM,53.1,37.9,57,30.14,10.0,Variable,3.5,-,N/A,,Mostly Cloudy,0,2013-03-02 18:53:00
11:53 AM,55.0,37.9,53,30.11,10.0,SE,4.6,-,N/A,,Mostly Cloudy,140,2013-03-02 19:53:00
12:53 PM,55.0,37.9,53,30.07,10.0,Variable,5.8,-,N/A,,Overcast,0,2013-03-02 20:53:00
1:53 PM,55.9,37.0,49,30.05,10.0,SSW,8.1,-,N/A,,Overcast,200,2013-03-02 21:53:00
2:53 PM,55.9,39.0,53,30.03,10.0,SW,5.8,-,N/A,,Overcast,220,2013-03-02 22:53:00
3:53 PM,55.0,39.0,55,30.01,10.0,SSW,9.2,-,N/A,,Overcast,210,2013-03-02 23:53:00
4:53 PM,54.0,39.9,59,30.00,10.0,Calm,Calm,-,N/A,,Overcast,0,2013-03-03 00:53:00
5:53 PM,52.0,41.0,66,29.99,10.0,SW,3.5,-,N/A,,Overcast,220,2013-03-03 01:53:00
6:53 PM,51.1,41.0,68,29.97,10.0,SSW,8.1,-,N/A,,Overcast,210,2013-03-03 02:53:00
7:53 PM,51.1,39.9,66,29.94,10.0,SSW,13.8,21.9,0.00,,Overcast,200,2013-03-03 03:53:00
8:53 PM,50.0,39.9,68,29.93,10.0,SW,10.4,18.4,N/A,,Mostly Cloudy,230,2013-03-03 04:53:00
9:53 PM,48.9,39.9,71,29.91,10.0,SW,15.0,-,N/A,,Mostly Cloudy,220,2013-03-03 05:53:00
10:53 PM,48.0,37.9,68,29.90,10.0,SW,19.6,26.5,N/A,,Partly Cloudy,220,2013-03-03 06:53:00
11:35 PM,46.4,37.4,71,29.89,10.0,SW,18.4,25.3,N/A,,Overcast,220,2013-03-03 07:35:00
11:53 PM,46.9,36.0,66,29.89,10.0,SW,15.0,24.2,N/A,,Overcast,230,2013-03-03 07:53:00